Time;durP1;ratioP1;P1;durP2;ratioP2;P2;SDS_P1;SDS_P2;PMS_P1;PMS_P2;Temp;Humidity;BMP_temperature;BMP_pressure;BME280_temperature;BME280_humidity;BME280_pressure;Samples;Min_cycle;Max_cycle;Signal;HPM_P1;HPM_P2
2020/12/29 00:01:38;;;;;;;7.32;3.95;;;;;;;;;;5043243;28;20045;-77
2020/12/29 00:04:05;;;;;;;6.05;4.53;;;;;;;;;;5045648;28;20428;-77
2020/12/29 00:06:31;;;;;;;9.05;4.07;;;;;;;;;;5041398;28;20489;-77
2020/12/29 00:08:57;;;;;;;6.75;3.85;;;;;;;;;;5044379;28;20033;-78
2020/12/29 00:11:24;;;;;;;5.70;3.78;;;;;;;;;;5048166;28;20121;-78
2020/12/29 00:13:50;;;;;;;6.10;4.07;;;;;;;;;;5044939;28;20039;-78
2020/12/29 00:16:16;;;;;;;6.28;4.22;;;;;;;;;;5047670;28;20407;-77
2020/12/29 00:18:42;;;;;;;7.88;4.00;;;;;;;;;;5049748;28;20037;-77
2020/12/29 00:21:09;;;;;;;6.32;4.03;;;;;;;;;;5049329;28;20430;-79
2020/12/29 00:23:35;;;;;;;10.80;3.60;;;;;;;;;;5052672;28;20120;-78
2020/12/29 00:26:01;;;;;;;5.85;4.03;;;;;;;;;;5052576;28;20021;-79
2020/12/29 00:28:27;;;;;;;6.85;3.90;;;;;;;;;;5049575;28;20060;-78
2020/12/29 00:30:54;;;;;;;6.82;3.88;;;;;;;;;;5048132;28;20411;-78
2020/12/29 00:33:20;;;;;;;7.35;4.50;;;;;;;;;;5050331;28;20025;-78
2020/12/29 00:35:46;;;;;;;6.60;4.22;;;;;;;;;;5049183;28;20029;-78
2020/12/29 00:38:30;;;;;;;5.82;4.10;;;;;;;;;;5047675;28;20049;-78
2020/12/29 00:40:56;;;;;;;7.00;4.55;;;;;;;;;;5048212;28;20031;-78
2020/12/29 00:43:22;;;;;;;7.75;4.15;;;;;;;;;;5046430;28;20033;-78
2020/12/29 00:45:48;;;;;;;12.35;4.95;;;;;;;;;;5050001;28;20025;-77
2020/12/29 00:48:14;;;;;;;10.75;5.55;;;;;;;;;;5048089;28;20025;-78
2020/12/29 00:50:40;;;;;;;13.07;7.18;;;;;;;;;;5048891;28;20497;-78
2020/12/29 00:53:08;;;;;;;12.45;6.07;;;;;;;;;;5049548;28;20026;-78
2020/12/29 00:55:34;;;;;;;9.10;4.88;;;;;;;;;;5046970;28;20017;-78
2020/12/29 00:58:00;;;;;;;10.55;4.82;;;;;;;;;;5046003;28;20026;-78
2020/12/29 01:00:26;;;;;;;12.98;6.57;;;;;;;;;;5046779;28;20029;-78
2020/12/29 01:02:52;;;;;;;15.75;6.72;;;;;;;;;;5047792;28;20053;-78
2020/12/29 01:05:18;;;;;;;39.40;12.15;;;;;;;;;;5050106;28;20024;-77
2020/12/29 01:07:44;;;;;;;43.30;11.88;;;;;;;;;;5058812;28;20032;-77
2020/12/29 01:10:10;;;;;;;42.10;11.48;;;;;;;;;;5058879;28;20472;-77
2020/12/29 01:12:36;;;;;;;35.63;11.48;;;;;;;;;;5058767;28;20047;-78
2020/12/29 01:15:03;;;;;;;22.33;7.18;;;;;;;;;;5058851;28;20021;-78
2020/12/29 01:17:29;;;;;;;21.98;6.28;;;;;;;;;;5058960;28;20146;-78
2020/12/29 01:19:55;;;;;;;10.15;4.55;;;;;;;;;;5058627;28;20399;-78
2020/12/29 01:22:21;;;;;;;7.22;4.50;;;;;;;;;;5057453;28;20410;-78
2020/12/29 01:24:47;;;;;;;10.45;4.88;;;;;;;;;;5058300;28;20407;-79
2020/12/29 01:27:13;;;;;;;8.00;3.85;;;;;;;;;;5057757;28;20065;-78
2020/12/29 01:29:39;;;;;;;8.75;4.55;;;;;;;;;;5058557;28;20029;-78
2020/12/29 01:32:05;;;;;;;8.35;4.30;;;;;;;;;;5058338;28;20037;-78
2020/12/29 01:34:31;;;;;;;6.20;3.63;;;;;;;;;;5058340;28;20068;-78
2020/12/29 01:36:57;;;;;;;7.85;2.85;;;;;;;;;;5057529;28;20300;-79
2020/12/29 01:39:23;;;;;;;4.80;1.38;;;;;;;;;;5058204;28;20288;-79
2020/12/29 01:41:49;;;;;;;5.05;1.10;;;;;;;;;;5058304;28;20415;-79
2020/12/29 01:44:16;;;;;;;6.88;1.45;;;;;;;;;;5058055;28;20529;-78
2020/12/29 01:46:46;;;;;;;5.00;1.25;;;;;;;;;;5058098;28;20037;-78
2020/12/29 01:49:12;;;;;;;4.28;1.23;;;;;;;;;;5057887;28;20314;-78
2020/12/29 01:51:39;;;;;;;19.27;6.97;;;;;;;;;;5058044;28;20021;-79
2020/12/29 01:54:05;;;;;;;10.38;4.13;;;;;;;;;;5057668;28;20066;-78
2020/12/29 01:56:34;;;;;;;5.82;1.70;;;;;;;;;;5056860;28;20438;-78
2020/12/29 01:59:00;;;;;;;3.63;0.85;;;;;;;;;;5057800;28;20070;-78
2020/12/29 02:01:26;;;;;;;2.63;0.80;;;;;;;;;;5056543;28;20021;-78
2020/12/29 02:03:52;;;;;;;2.38;1.13;;;;;;;;;;5057788;28;20353;-79
2020/12/29 02:06:20;;;;;;;2.42;0.88;;;;;;;;;;5057847;28;20025;-78
2020/12/29 02:08:46;;;;;;;1.52;0.70;;;;;;;;;;5057816;28;20021;-79
2020/12/29 02:11:12;;;;;;;1.02;0.70;;;;;;;;;;5057863;28;20047;-78
2020/12/29 02:13:42;;;;;;;2.38;1.10;;;;;;;;;;5057523;28;20338;-78
2020/12/29 02:16:08;;;;;;;2.40;1.17;;;;;;;;;;5057770;28;20062;-78
2020/12/29 02:18:34;;;;;;;2.92;1.05;;;;;;;;;;5057628;28;20457;-78
2020/12/29 02:21:01;;;;;;;6.45;1.08;;;;;;;;;;5057675;28;20830;-78
2020/12/29 02:23:27;;;;;;;4.65;0.85;;;;;;;;;;5056110;28;20030;-78
2020/12/29 02:25:53;;;;;;;1.05;0.50;;;;;;;;;;5057717;28;20025;-78
2020/12/29 02:28:19;;;;;;;1.70;0.60;;;;;;;;;;5057504;28;20036;-78
2020/12/29 02:30:45;;;;;;;1.65;0.90;;;;;;;;;;5057390;28;20112;-78
2020/12/29 02:33:11;;;;;;;8.20;2.92;;;;;;;;;;5056719;28;20029;-78
2020/12/29 02:35:37;;;;;;;19.55;6.05;;;;;;;;;;5057406;28;20018;-78
2020/12/29 02:38:03;;;;;;;21.00;7.75;;;;;;;;;;5057119;28;20063;-78
2020/12/29 02:40:29;;;;;;;22.73;7.07;;;;;;;;;;5057419;28;20025;-78
2020/12/29 02:42:55;;;;;;;11.85;4.70;;;;;;;;;;5056227;28;20024;-79
2020/12/29 02:45:21;;;;;;;11.88;5.38;;;;;;;;;;5056068;28;20456;-79
2020/12/29 02:47:47;;;;;;;8.02;2.45;;;;;;;;;;5057205;28;20031;-79
2020/12/29 02:50:13;;;;;;;6.25;2.05;;;;;;;;;;5055536;28;20025;-79
2020/12/29 02:52:39;;;;;;;5.63;2.10;;;;;;;;;;5057196;28;20104;-79
2020/12/29 02:55:05;;;;;;;8.70;3.38;;;;;;;;;;5057051;28;20021;-79
2020/12/29 02:57:31;;;;;;;14.52;4.97;;;;;;;;;;5057086;28;20021;-79
2020/12/29 02:59:57;;;;;;;17.50;7.53;;;;;;;;;;5056985;28;20041;-79
2020/12/29 03:02:23;;;;;;;19.38;7.35;;;;;;;;;;5056745;28;20057;-79
2020/12/29 03:04:49;;;;;;;20.00;6.63;;;;;;;;;;5056926;28;20021;-80
2020/12/29 03:07:15;;;;;;;15.48;6.30;;;;;;;;;;5057114;28;20031;-78
2020/12/29 03:10:19;;;;;;;15.32;5.10;;;;;;;;;;5057074;28;20025;-78
2020/12/29 03:12:45;;;;;;;11.80;4.85;;;;;;;;;;5056669;28;20116;-79
2020/12/29 03:15:11;;;;;;;8.95;3.47;;;;;;;;;;5056851;28;20063;-79
2020/12/29 03:17:37;;;;;;;5.22;2.47;;;;;;;;;;5056715;28;20028;-79
2020/12/29 03:20:04;;;;;;;4.82;2.58;;;;;;;;;;5056810;28;20029;-79
2020/12/29 03:22:30;;;;;;;2.72;1.90;;;;;;;;;;5056763;28;20025;-78
2020/12/29 03:24:56;;;;;;;3.35;2.05;;;;;;;;;;5056897;28;20029;-78
2020/12/29 03:27:22;;;;;;;3.30;1.88;;;;;;;;;;5056817;28;20121;-79
2020/12/29 03:29:49;;;;;;;3.97;1.77;;;;;;;;;;5056650;28;20021;-78
2020/12/29 03:32:15;;;;;;;2.10;1.35;;;;;;;;;;5056392;28;20082;-78
2020/12/29 03:34:41;;;;;;;2.70;1.20;;;;;;;;;;5056738;28;20056;-78
2020/12/29 03:37:07;;;;;;;2.53;0.95;;;;;;;;;;5055720;28;20319;-78
2020/12/29 03:39:34;;;;;;;1.98;0.93;;;;;;;;;;5056662;28;20025;-78
2020/12/29 03:42:00;;;;;;;2.33;1.40;;;;;;;;;;5056740;28;20032;-78
2020/12/29 03:44:26;;;;;;;2.08;1.23;;;;;;;;;;5057006;28;20319;-78
2020/12/29 03:46:53;;;;;;;4.63;1.88;;;;;;;;;;5059296;28;20033;-78
2020/12/29 03:49:19;;;;;;;5.43;2.97;;;;;;;;;;5060313;28;20430;-78
2020/12/29 03:51:45;;;;;;;4.45;2.75;;;;;;;;;;5060587;28;20029;-78
2020/12/29 03:54:11;;;;;;;8.20;2.95;;;;;;;;;;5060253;28;20036;-78
2020/12/29 03:56:37;;;;;;;7.20;2.25;;;;;;;;;;5059266;28;20411;-78
2020/12/29 03:59:04;;;;;;;6.97;2.42;;;;;;;;;;5060189;28;20025;-78
2020/12/29 04:01:30;;;;;;;9.35;4.72;;;;;;;;;;5059949;28;20029;-78
2020/12/29 04:03:56;;;;;;;15.50;7.45;;;;;;;;;;5060111;28;20032;-78
2020/12/29 04:06:22;;;;;;;21.83;11.02;;;;;;;;;;5060107;28;20075;-78
2020/12/29 04:08:49;;;;;;;21.08;10.00;;;;;;;;;;5059892;28;20029;-78
2020/12/29 04:11:15;;;;;;;9.77;4.50;;;;;;;;;;5060084;28;20419;-78
2020/12/29 04:13:41;;;;;;;7.95;3.30;;;;;;;;;;5059910;28;20033;-78
2020/12/29 04:16:07;;;;;;;6.53;2.40;;;;;;;;;;5060025;28;20044;-78
2020/12/29 04:18:33;;;;;;;3.50;2.05;;;;;;;;;;5059865;28;20027;-78
2020/12/29 04:21:00;;;;;;;5.85;2.70;;;;;;;;;;5059898;28;20021;-78
2020/12/29 04:23:26;;;;;;;3.00;1.45;;;;;;;;;;5059953;28;20036;-78
2020/12/29 04:25:52;;;;;;;3.33;1.80;;;;;;;;;;5058614;28;20345;-78
2020/12/29 04:28:18;;;;;;;3.40;1.88;;;;;;;;;;5059489;28;20025;-78
2020/12/29 04:30:44;;;;;;;4.97;2.22;;;;;;;;;;5059599;28;20032;-78
2020/12/29 04:33:10;;;;;;;1.30;0.90;;;;;;;;;;5058212;28;20059;-77
2020/12/29 04:35:36;;;;;;;1.00;0.70;;;;;;;;;;5058756;28;20033;-78
2020/12/29 04:38:02;;;;;;;2.58;1.10;;;;;;;;;;5058331;28;20119;-79
2020/12/29 04:40:32;;;;;;;1.92;1.25;;;;;;;;;;5059408;28;20113;-79
2020/12/29 04:42:58;;;;;;;3.03;1.20;;;;;;;;;;5059419;28;20040;-79
2020/12/29 04:45:24;;;;;;;3.67;1.42;;;;;;;;;;5059307;28;20029;-79
2020/12/29 04:47:51;;;;;;;3.53;1.20;;;;;;;;;;5059377;28;20126;-78
2020/12/29 04:50:19;;;;;;;5.25;1.30;;;;;;;;;;5059044;28;20104;-78
2020/12/29 04:52:45;;;;;;;1.60;1.20;;;;;;;;;;5059062;28;20415;-79
2020/12/29 04:55:11;;;;;;;2.58;1.10;;;;;;;;;;5058784;28;20029;-78
2020/12/29 04:57:38;;;;;;;2.47;1.48;;;;;;;;;;5059117;28;20206;-78
2020/12/29 05:00:07;;;;;;;6.68;1.60;;;;;;;;;;5059078;28;20017;-78
2020/12/29 05:02:33;;;;;;;3.90;1.70;;;;;;;;;;5058594;28;20486;-78
2020/12/29 05:04:59;;;;;;;3.67;2.15;;;;;;;;;;5059032;28;20029;-78
2020/12/29 05:07:29;;;;;;;5.85;2.63;;;;;;;;;;5058967;28;20039;-78
2020/12/29 05:09:55;;;;;;;5.30;2.83;;;;;;;;;;5058870;28;20326;-78
2020/12/29 05:12:21;;;;;;;4.30;2.25;;;;;;;;;;5058552;28;20028;-78
2020/12/29 05:14:48;;;;;;;7.90;4.25;;;;;;;;;;5058768;28;20027;-79
2020/12/29 05:17:15;;;;;;;8.55;3.78;;;;;;;;;;5058909;28;20028;-79
2020/12/29 05:19:42;;;;;;;7.25;3.20;;;;;;;;;;5059091;28;20193;-78
2020/12/29 05:22:08;;;;;;;11.52;4.07;;;;;;;;;;5057616;28;20132;-78
2020/12/29 05:24:35;;;;;;;14.65;6.00;;;;;;;;;;5058481;28;20327;-78
2020/12/29 05:27:01;;;;;;;22.05;8.55;;;;;;;;;;5058664;28;20082;-78
2020/12/29 05:29:28;;;;;;;13.85;5.93;;;;;;;;;;5058415;28;20020;-79
2020/12/29 05:31:54;;;;;;;10.20;4.55;;;;;;;;;;5058203;28;20064;-79
2020/12/29 05:34:24;;;;;;;7.93;3.70;;;;;;;;;;5058393;28;20017;-79
2020/12/29 05:36:51;;;;;;;5.90;2.97;;;;;;;;;;5058345;28;20021;-79
2020/12/29 05:39:17;;;;;;;4.97;2.55;;;;;;;;;;5058273;28;20330;-79
2020/12/29 05:41:45;;;;;;;5.72;2.92;;;;;;;;;;5058246;28;20096;-77
2020/12/29 05:44:13;;;;;;;6.65;2.85;;;;;;;;;;5058433;28;20094;-77
2020/12/29 05:46:39;;;;;;;7.82;3.40;;;;;;;;;;5058234;28;20087;-78
2020/12/29 05:49:06;;;;;;;6.50;2.50;;;;;;;;;;5058180;28;20033;-78
2020/12/29 05:51:35;;;;;;;4.93;2.72;;;;;;;;;;5058180;28;20108;-78
2020/12/29 05:54:02;;;;;;;5.38;2.92;;;;;;;;;;5058145;28;20100;-78
2020/12/29 05:56:32;;;;;;;6.28;3.38;;;;;;;;;;5056877;28;20021;-78
2020/12/29 05:58:58;;;;;;;8.15;3.50;;;;;;;;;;5057978;28;20021;-77
2020/12/29 06:01:38;;;;;;;7.50;3.17;;;;;;;;;;5057592;28;20017;-79
2020/12/29 06:04:04;;;;;;;5.07;2.60;;;;;;;;;;5056813;28;20029;-78
2020/12/29 06:06:34;;;;;;;8.95;4.28;;;;;;;;;;5056801;28;20029;-78
2020/12/29 06:09:02;;;;;;;11.32;5.75;;;;;;;;;;5057211;28;20028;-78
2020/12/29 06:11:36;;;;;;;10.80;5.82;;;;;;;;;;5057021;28;20033;-78
2020/12/29 06:14:02;;;;;;;11.95;7.05;;;;;;;;;;5057555;28;20440;-78
2020/12/29 06:16:32;;;;;;;11.27;6.45;;;;;;;;;;5056546;28;20357;-78
2020/12/29 06:19:02;;;;;;;10.55;5.78;;;;;;;;;;5057630;28;20021;-78
2020/12/29 06:21:29;;;;;;;6.90;4.45;;;;;;;;;;5057647;28;20025;-78
2020/12/29 06:23:58;;;;;;;9.23;4.72;;;;;;;;;;5057566;28;20108;-78
2020/12/29 06:26:30;;;;;;;10.38;4.68;;;;;;;;;;5057332;28;20032;-78
2020/12/29 06:28:56;;;;;;;6.80;3.97;;;;;;;;;;5056372;28;20028;-79
2020/12/29 06:31:28;;;;;;;10.82;4.43;;;;;;;;;;5057173;28;20033;-78
2020/12/29 06:33:55;;;;;;;12.20;7.55;;;;;;;;;;5057532;28;20031;-79
2020/12/29 06:36:22;;;;;;;8.43;4.93;;;;;;;;;;5057393;28;20033;-79
2020/12/29 06:38:49;;;;;;;10.80;6.07;;;;;;;;;;5057417;28;20354;-78
2020/12/29 06:41:17;;;;;;;12.32;6.47;;;;;;;;;;5057472;28;20369;-78
2020/12/29 06:43:44;;;;;;;10.45;8.30;;;;;;;;;;5057155;28;20028;-78
2020/12/29 06:46:11;;;;;;;12.95;10.05;;;;;;;;;;5057466;28;20036;-78
2020/12/29 06:48:37;;;;;;;12.13;8.80;;;;;;;;;;5057348;28;20059;-79
2020/12/29 06:51:07;;;;;;;10.80;5.57;;;;;;;;;;5057104;28;20345;-79
2020/12/29 06:53:33;;;;;;;7.70;5.10;;;;;;;;;;5056999;28;20127;-78
2020/12/29 06:56:01;;;;;;;10.70;5.93;;;;;;;;;;5056352;28;20063;-87
2020/12/29 06:58:31;;;;;;;35.78;32.10;;;;;;;;;;5056638;28;20360;-84
2020/12/29 07:01:16;;;;;;;10.80;6.05;;;;;;;;;;5056508;28;20029;-84
2020/12/29 07:03:43;;;;;;;13.85;6.65;;;;;;;;;;5057325;28;20071;-84
2020/12/29 07:06:09;;;;;;;13.45;7.10;;;;;;;;;;5057058;28;20025;-84
2020/12/29 07:08:38;;;;;;;17.70;7.57;;;;;;;;;;5056260;28;20419;-84
2020/12/29 07:11:17;;;;;;;17.35;9.35;;;;;;;;;;5056316;28;20079;-83
2020/12/29 07:13:50;;;;;;;18.25;8.90;;;;;;;;;;5056432;28;20346;-83
2020/12/29 07:16:21;;;;;;;16.95;8.70;;;;;;;;;;5057232;28;20403;-84
2020/12/29 07:18:48;;;;;;;22.55;10.13;;;;;;;;;;5058398;28;20036;-83
2020/12/29 07:21:26;;;;;;;16.50;9.18;;;;;;;;;;5060314;28;20029;-84
2020/12/29 07:23:53;;;;;;;19.63;9.65;;;;;;;;;;5061261;28;20025;-83
2020/12/29 07:26:19;;;;;;;21.45;12.48;;;;;;;;;;5061347;28;20036;-84
2020/12/29 07:28:46;;;;;;;29.15;14.98;;;;;;;;;;5060251;28;20060;-83
2020/12/29 07:31:14;;;;;;;29.27;14.73;;;;;;;;;;5059439;28;20127;-83
2020/12/29 07:33:48;;;;;;;28.58;14.57;;;;;;;;;;5061082;28;20160;-83
2020/12/29 07:36:18;;;;;;;27.50;11.80;;;;;;;;;;5060044;28;20048;-84
2020/12/29 07:38:46;;;;;;;18.58;9.27;;;;;;;;;;5059795;28;20075;-83
2020/12/29 07:41:13;;;;;;;15.65;9.55;;;;;;;;;;5061018;28;20025;-83
2020/12/29 07:43:39;;;;;;;22.75;13.60;;;;;;;;;;5060955;28;20025;-83
2020/12/29 07:46:06;;;;;;;20.25;14.73;;;;;;;;;;5059695;28;20029;-84
2020/12/29 07:48:32;;;;;;;21.27;14.50;;;;;;;;;;5059968;28;20468;-83
2020/12/29 07:50:59;;;;;;;12.40;7.60;;;;;;;;;;5061017;28;20025;-83
2020/12/29 07:53:25;;;;;;;12.07;7.35;;;;;;;;;;5059207;28;20032;-85
2020/12/29 07:55:52;;;;;;;12.43;7.30;;;;;;;;;;5060595;28;20025;-83
2020/12/29 07:58:18;;;;;;;17.95;7.53;;;;;;;;;;5060552;28;20027;-83
2020/12/29 08:00:44;;;;;;;16.73;7.20;;;;;;;;;;5060619;28;20094;-83
2020/12/29 08:03:11;;;;;;;19.15;7.35;;;;;;;;;;5060035;28;20053;-83
2020/12/29 08:05:38;;;;;;;24.50;10.90;;;;;;;;;;5060386;28;20115;-83
2020/12/29 08:08:05;;;;;;;16.45;8.98;;;;;;;;;;5060622;28;20028;-83
2020/12/29 08:10:32;;;;;;;19.77;10.68;;;;;;;;;;5060550;28;20032;-82
2020/12/29 08:12:59;;;;;;;22.20;11.48;;;;;;;;;;5060415;28;20017;-83
2020/12/29 08:15:29;;;;;;;20.73;11.57;;;;;;;;;;5060277;28;20112;-82
2020/12/29 08:18:09;;;;;;;16.17;8.57;;;;;;;;;;5059354;28;20021;-82
2020/12/29 08:20:44;;;;;;;12.63;7.00;;;;;;;;;;5059927;28;20028;-82
2020/12/29 08:23:11;;;;;;;16.23;7.07;;;;;;;;;;5060081;28;20028;-80
2020/12/29 08:25:37;;;;;;;14.75;8.40;;;;;;;;;;5059430;28;20029;-80
2020/12/29 08:28:04;;;;;;;13.20;7.63;;;;;;;;;;5058499;28;20484;-80
2020/12/29 08:30:31;;;;;;;9.40;5.15;;;;;;;;;;5058033;28;20025;-80
2020/12/29 08:32:58;;;;;;;12.73;6.10;;;;;;;;;;5058617;28;20045;-79
2020/12/29 08:35:24;;;;;;;8.68;5.32;;;;;;;;;;5059598;28;20052;-80
2020/12/29 08:38:13;;;;;;;9.77;4.78;;;;;;;;;;5059817;28;20021;-80
2020/12/29 08:40:48;;;;;;;7.70;4.13;;;;;;;;;;5057765;28;20148;-80
2020/12/29 08:43:16;;;;;;;9.85;4.50;;;;;;;;;;5057619;28;20033;-80
2020/12/29 08:45:43;;;;;;;13.88;4.05;;;;;;;;;;5057463;28;20423;-79
2020/12/29 08:48:09;;;;;;;13.90;4.65;;;;;;;;;;5057711;28;20033;-79
2020/12/29 08:50:37;;;;;;;17.05;5.93;;;;;;;;;;5057438;28;20056;-79
2020/12/29 08:53:04;;;;;;;16.30;6.82;;;;;;;;;;5057389;28;20448;-80
2020/12/29 08:55:31;;;;;;;23.88;9.50;;;;;;;;;;5057381;28;20021;-80
2020/12/29 08:57:58;;;;;;;13.05;6.55;;;;;;;;;;5040671;28;20033;-80
2020/12/29 09:00:25;;;;;;;14.90;6.30;;;;;;;;;;5040719;28;20116;-78
2020/12/29 09:02:51;;;;;;;34.15;12.68;;;;;;;;;;5056723;28;20057;-79
2020/12/29 09:05:20;;;;;;;24.85;8.95;;;;;;;;;;5056941;28;20041;-78
2020/12/29 09:07:47;;;;;;;19.45;6.65;;;;;;;;;;5057212;28;20423;-79
2020/12/29 09:10:13;;;;;;;24.00;9.85;;;;;;;;;;5057087;28;20083;-79
2020/12/29 09:12:39;;;;;;;21.95;10.80;;;;;;;;;;5056800;28;20170;-79
2020/12/29 09:15:08;;;;;;;19.08;8.43;;;;;;;;;;5057074;28;20027;-79
2020/12/29 09:17:36;;;;;;;15.30;7.18;;;;;;;;;;5057794;28;20423;-80
2020/12/29 09:20:12;;;;;;;16.58;7.18;;;;;;;;;;5057745;28;20326;-79
2020/12/29 09:23:07;;;;;;;8.73;4.15;;;;;;;;;;5058740;28;20025;-79
2020/12/29 09:25:33;;;;;;;7.35;3.85;;;;;;;;;;5056613;28;20033;-79
2020/12/29 09:28:14;;;;;;;20.45;11.68;;;;;;;;;;5056846;28;20139;-79
2020/12/29 09:30:42;;;;;;;24.45;8.50;;;;;;;;;;5056761;28;20453;-78
2020/12/29 09:33:08;;;;;;;21.05;10.55;;;;;;;;;;5023306;28;20067;-78
2020/12/29 09:35:34;;;;;;;23.85;14.13;;;;;;;;;;5056658;28;20036;-78
2020/12/29 09:38:01;;;;;;;25.85;10.77;;;;;;;;;;5056522;28;20100;-78
2020/12/29 09:40:27;;;;;;;59.00;13.68;;;;;;;;;;5056544;28;20041;-78
2020/12/29 09:42:53;;;;;;;33.13;9.75;;;;;;;;;;5039167;28;20036;-77
2020/12/29 09:45:20;;;;;;;47.20;11.82;;;;;;;;;;5039676;28;20033;-78
2020/12/29 09:47:47;;;;;;;29.25;11.25;;;;;;;;;;5056351;28;20025;-78
2020/12/29 09:50:13;;;;;;;89.47;26.17;;;;;;;;;;5056033;28;20033;-79
2020/12/29 09:52:39;;;;;;;39.60;19.00;;;;;;;;;;5056001;28;20029;-79
2020/12/29 09:55:05;;;;;;;24.50;14.65;;;;;;;;;;5039427;28;20459;-79
2020/12/29 09:57:32;;;;;;;30.83;14.93;;;;;;;;;;5056090;28;20298;-78
2020/12/29 09:59:58;;;;;;;24.20;12.25;;;;;;;;;;5056104;28;20114;-78
2020/12/29 10:02:24;;;;;;;15.93;8.90;;;;;;;;;;5057045;28;20045;-78
2020/12/29 10:04:50;;;;;;;24.67;9.98;;;;;;;;;;5057937;28;20307;-79
2020/12/29 10:07:16;;;;;;;16.08;8.07;;;;;;;;;;5057957;28;20074;-78
2020/12/29 10:09:43;;;;;;;11.90;5.85;;;;;;;;;;5057779;28;20467;-79
2020/12/29 10:12:09;;;;;;;11.88;6.63;;;;;;;;;;5058016;28;20052;-81
2020/12/29 10:14:35;;;;;;;8.35;4.47;;;;;;;;;;5058035;28;20399;-85
2020/12/29 10:17:01;;;;;;;12.00;5.13;;;;;;;;;;5058445;28;20327;-85
2020/12/29 10:19:27;;;;;;;9.63;5.55;;;;;;;;;;5058228;28;20517;-85
2020/12/29 10:21:53;;;;;;;9.88;5.45;;;;;;;;;;5057189;28;20411;-84
2020/12/29 10:24:20;;;;;;;19.92;8.80;;;;;;;;;;5058126;28;20049;-83
2020/12/29 10:26:49;;;;;;;48.45;8.82;;;;;;;;;;5057995;28;20079;-85
2020/12/29 10:29:15;;;;;;;29.05;7.45;;;;;;;;;;5057795;28;20027;-85
2020/12/29 10:31:41;;;;;;;66.80;18.23;;;;;;;;;;5057303;28;20079;-84
2020/12/29 10:34:07;;;;;;;80.63;36.95;;;;;;;;;;5057536;28;20065;-85
2020/12/29 10:36:34;;;;;;;30.33;12.30;;;;;;;;;;5057508;28;20029;-86
2020/12/29 10:39:19;;;;;;;51.30;25.27;;;;;;;;;;5056800;28;20045;-84
2020/12/29 10:41:45;;;;;;;37.47;20.08;;;;;;;;;;5057991;28;20399;-85
2020/12/29 10:44:11;;;;;;;25.73;14.90;;;;;;;;;;5058173;28;20048;-85
2020/12/29 10:46:37;;;;;;;58.85;24.83;;;;;;;;;;5057676;28;20437;-84
2020/12/29 10:49:04;;;;;;;34.30;14.13;;;;;;;;;;5056761;28;20024;-86
2020/12/29 10:51:30;;;;;;;54.55;17.80;;;;;;;;;;5057944;28;20024;-93
2020/12/29 10:53:56;;;;;;;92.75;19.65;;;;;;;;;;5056390;28;20033;-83
2020/12/29 10:56:22;;;;;;;134.27;26.48;;;;;;;;;;5056430;28;20071;-80
2020/12/29 10:58:48;;;;;;;64.47;16.38;;;;;;;;;;5055836;28;20320;-80
2020/12/29 11:01:24;;;;;;;40.67;10.32;;;;;;;;;;5056798;28;20041;-79
2020/12/29 11:03:51;;;;;;;30.45;12.13;;;;;;;;;;5056008;28;20052;-79
2020/12/29 11:06:19;;;;;;;15.27;8.32;;;;;;;;;;5057185;28;20449;-79
2020/12/29 11:08:46;;;;;;;21.83;8.77;;;;;;;;;;5055937;28;20120;-81
2020/12/29 11:11:12;;;;;;;13.95;6.90;;;;;;;;;;5057506;28;20072;-80
2020/12/29 11:13:39;;;;;;;13.90;7.47;;;;;;;;;;5057580;28;20104;-80
2020/12/29 11:16:05;;;;;;;24.88;9.40;;;;;;;;;;5056839;28;20043;-79
2020/12/29 11:18:31;;;;;;;37.35;12.85;;;;;;;;;;5057684;28;20036;-79
2020/12/29 11:20:57;;;;;;;59.22;19.05;;;;;;;;;;5057350;28;20024;-79
2020/12/29 11:23:23;;;;;;;45.30;15.70;;;;;;;;;;5056910;28;20324;-79
2020/12/29 11:25:50;;;;;;;42.35;18.80;;;;;;;;;;5056910;28;20315;-79
2020/12/29 11:28:16;;;;;;;105.20;45.17;;;;;;;;;;5056829;28;20036;-79
2020/12/29 11:30:43;;;;;;;77.45;31.27;;;;;;;;;;5057101;28;20108;-79
2020/12/29 11:33:09;;;;;;;66.68;29.77;;;;;;;;;;5056468;28;20354;-79
2020/12/29 11:35:35;;;;;;;26.13;12.65;;;;;;;;;;5056671;28;20029;-79
2020/12/29 11:38:02;;;;;;;22.48;10.00;;;;;;;;;;5056702;28;20021;-80
2020/12/29 11:40:28;;;;;;;16.90;7.82;;;;;;;;;;5055894;28;20034;-80
2020/12/29 11:42:55;;;;;;;13.75;6.90;;;;;;;;;;5057253;28;20045;-79
2020/12/29 11:45:21;;;;;;;28.17;5.55;;;;;;;;;;5056704;28;20032;-80
2020/12/29 11:47:48;;;;;;;497.42;42.83;;;;;;;;;;5057235;28;20036;-79
2020/12/29 11:50:14;;;;;;;305.35;40.55;;;;;;;;;;5056364;28;20112;-79
2020/12/29 11:52:41;;;;;;;11.70;5.13;;;;;;;;;;5056050;28;20096;-79
2020/12/29 11:55:07;;;;;;;14.43;7.10;;;;;;;;;;5056286;28;20029;-79
2020/12/29 11:57:33;;;;;;;18.95;8.13;;;;;;;;;;5056450;28;20029;-80
2020/12/29 11:59:59;;;;;;;31.73;8.95;;;;;;;;;;5056480;28;20037;-80
2020/12/29 12:02:25;;;;;;;28.60;9.43;;;;;;;;;;5056073;28;20041;-79
2020/12/29 12:04:51;;;;;;;53.70;13.55;;;;;;;;;;5056298;28;20116;-80
2020/12/29 12:07:17;;;;;;;35.25;10.00;;;;;;;;;;5059651;28;20017;-80
2020/12/29 12:09:43;;;;;;;54.90;15.68;;;;;;;;;;5058549;28;20398;-80
2020/12/29 12:12:09;;;;;;;29.50;12.23;;;;;;;;;;5060280;28;20307;-79
2020/12/29 12:14:35;;;;;;;12.25;6.30;;;;;;;;;;5060130;28;20021;-80
2020/12/29 12:17:01;;;;;;;14.85;7.22;;;;;;;;;;5060416;28;20395;-80
2020/12/29 12:19:27;;;;;;;15.05;7.00;;;;;;;;;;5058825;28;20105;-80
2020/12/29 12:21:54;;;;;;;36.05;7.45;;;;;;;;;;5058886;28;20037;-80
2020/12/29 12:24:20;;;;;;;11.48;5.85;;;;;;;;;;5060364;28;20029;-79
2020/12/29 12:26:46;;;;;;;23.85;7.75;;;;;;;;;;5059738;28;20075;-79
2020/12/29 12:29:12;;;;;;;70.28;19.55;;;;;;;;;;5060050;28;20029;-80
2020/12/29 12:31:38;;;;;;;39.65;11.13;;;;;;;;;;5059701;28;20025;-79
2020/12/29 12:34:04;;;;;;;43.17;12.05;;;;;;;;;;5059505;28;20037;-79
2020/12/29 12:36:30;;;;;;;84.72;17.67;;;;;;;;;;5059541;28;20096;-79
2020/12/29 12:38:56;;;;;;;56.55;14.10;;;;;;;;;;5059541;28;20021;-80
2020/12/29 12:41:22;;;;;;;35.95;10.95;;;;;;;;;;5058400;28;20292;-79
2020/12/29 12:43:48;;;;;;;13.57;5.60;;;;;;;;;;5059448;28;20063;-80
2020/12/29 12:46:14;;;;;;;11.48;4.90;;;;;;;;;;5059310;28;20307;-80
2020/12/29 12:48:41;;;;;;;16.40;7.45;;;;;;;;;;5058263;28;20036;-80
2020/12/29 12:51:07;;;;;;;14.82;6.82;;;;;;;;;;5059439;28;20342;-79
2020/12/29 12:53:33;;;;;;;50.13;17.17;;;;;;;;;;5059280;28;20052;-79
2020/12/29 12:55:59;;;;;;;17.05;9.95;;;;;;;;;;5058218;28;20028;-80
2020/12/29 12:58:26;;;;;;;24.15;8.60;;;;;;;;;;5058998;28;20017;-79
2020/12/29 13:00:52;;;;;;;29.25;12.20;;;;;;;;;;5059276;28;20051;-79
2020/12/29 13:03:18;;;;;;;16.70;7.95;;;;;;;;;;5058831;28;20065;-80
2020/12/29 13:05:44;;;;;;;27.98;11.27;;;;;;;;;;5058820;28;20025;-79
2020/12/29 13:08:11;;;;;;;60.95;16.85;;;;;;;;;;5059079;28;20029;-79
2020/12/29 13:10:37;;;;;;;18.10;8.35;;;;;;;;;;5058632;28;20075;-80
2020/12/29 13:13:03;;;;;;;16.45;8.30;;;;;;;;;;5057972;28;20036;-79
2020/12/29 13:15:30;;;;;;;17.48;8.05;;;;;;;;;;5059020;28;20029;-79
2020/12/29 13:17:56;;;;;;;18.52;7.78;;;;;;;;;;5058741;28;20017;-80
2020/12/29 13:20:24;;;;;;;33.97;17.60;;;;;;;;;;5059078;28;20024;-79
2020/12/29 13:22:50;;;;;;;422.55;27.23;;;;;;;;;;5057458;28;20079;-79
2020/12/29 13:25:16;;;;;;;44.47;8.57;;;;;;;;;;5057526;28;20017;-79
2020/12/29 13:27:42;;;;;;;15.68;8.15;;;;;;;;;;5058755;28;20037;-80
2020/12/29 13:30:08;;;;;;;23.23;13.40;;;;;;;;;;5058413;28;20066;-80
2020/12/29 13:32:38;;;;;;;16.75;8.10;;;;;;;;;;5058717;28;20036;-79
2020/12/29 13:35:05;;;;;;;16.60;7.60;;;;;;;;;;5058213;28;20032;-80
2020/12/29 13:37:31;;;;;;;13.65;6.90;;;;;;;;;;5058549;28;20044;-80
2020/12/29 13:39:58;;;;;;;45.72;23.73;;;;;;;;;;5058271;28;20017;-80
2020/12/29 13:42:25;;;;;;;270.10;61.33;;;;;;;;;;5057163;28;20319;-79
2020/12/29 13:44:51;;;;;;;15.02;7.47;;;;;;;;;;5058587;28;20048;-80
2020/12/29 13:47:17;;;;;;;17.88;7.65;;;;;;;;;;5058243;28;20031;-79
2020/12/29 13:49:43;;;;;;;17.38;8.32;;;;;;;;;;5058065;28;20017;-79
2020/12/29 13:52:09;;;;;;;22.38;11.38;;;;;;;;;;5058150;28;20025;-79
2020/12/29 13:54:35;;;;;;;16.00;8.65;;;;;;;;;;5058238;28;20036;-80
2020/12/29 13:57:01;;;;;;;19.38;9.25;;;;;;;;;;5057695;28;20025;-79
2020/12/29 13:59:27;;;;;;;15.77;7.82;;;;;;;;;;5057937;28;20025;-77
2020/12/29 14:01:53;;;;;;;15.07;8.00;;;;;;;;;;5057739;28;20045;-76
2020/12/29 14:04:20;;;;;;;13.55;7.57;;;;;;;;;;5057869;28;20120;-78
2020/12/29 14:06:47;;;;;;;15.13;7.78;;;;;;;;;;5057954;28;20036;-76
2020/12/29 14:09:13;;;;;;;12.20;6.82;;;;;;;;;;5057749;28;20040;-76
2020/12/29 14:11:39;;;;;;;56.67;21.38;;;;;;;;;;5057963;28;20036;-77
2020/12/29 14:14:05;;;;;;;77.28;36.17;;;;;;;;;;5057769;28;20025;-77
2020/12/29 14:16:31;;;;;;;25.92;12.52;;;;;;;;;;5057829;28;20029;-76
2020/12/29 14:18:57;;;;;;;33.30;17.67;;;;;;;;;;5057630;28;20013;-76
2020/12/29 14:21:23;;;;;;;23.48;12.60;;;;;;;;;;5057663;28;20422;-76
2020/12/29 14:23:49;;;;;;;33.10;19.45;;;;;;;;;;5057846;28;20139;-77
2020/12/29 14:26:15;;;;;;;54.97;29.58;;;;;;;;;;5056121;28;20044;-77
2020/12/29 14:28:41;;;;;;;28.05;15.85;;;;;;;;;;5056899;28;20028;-77
2020/12/29 14:31:08;;;;;;;18.63;10.45;;;;;;;;;;5057067;28;20414;-76